sensor_id;sensor_type;location;lat;lon;timestamp;temperature;humidity
1956;DHT22;978;48.314;11.562;2022-12-18T00:01:58;20.40;61.30
1956;DHT22;978;48.314;11.562;2022-12-18T00:04:26;20.30;61.20
1956;DHT22;978;48.314;11.562;2022-12-18T00:06:53;20.30;61.10
1956;DHT22;978;48.314;11.562;2022-12-18T00:09:20;20.40;61.20
1956;DHT22;978;48.314;11.562;2022-12-18T00:11:47;20.30;61.00
1956;DHT22;978;48.314;11.562;2022-12-18T00:14:15;20.40;61.00
1956;DHT22;978;48.314;11.562;2022-12-18T00:16:44;20.30;61.00
1956;DHT22;978;48.314;11.562;2022-12-18T00:19:11;20.30;61.00
1956;DHT22;978;48.314;11.562;2022-12-18T00:21:38;20.40;60.90
1956;DHT22;978;48.314;11.562;2022-12-18T00:24:07;20.40;60.90
1956;DHT22;978;48.314;11.562;2022-12-18T00:26:34;20.30;60.80
1956;DHT22;978;48.314;11.562;2022-12-18T00:29:03;20.30;60.70
1956;DHT22;978;48.314;11.562;2022-12-18T00:31:32;20.30;60.70
1956;DHT22;978;48.314;11.562;2022-12-18T00:33:59;20.40;60.80
1956;DHT22;978;48.314;11.562;2022-12-18T00:36:28;20.30;60.60
1956;DHT22;978;48.314;11.562;2022-12-18T00:38:56;20.40;60.70
1956;DHT22;978;48.314;11.562;2022-12-18T00:41:23;20.30;60.60
1956;DHT22;978;48.314;11.562;2022-12-18T00:44:10;20.30;60.60
1956;DHT22;978;48.314;11.562;2022-12-18T00:46:38;20.30;60.60
1956;DHT22;978;48.314;11.562;2022-12-18T00:49:05;20.40;60.60
1956;DHT22;978;48.314;11.562;2022-12-18T00:51:32;20.40;60.60
1956;DHT22;978;48.314;11.562;2022-12-18T00:53:59;20.40;60.50
1956;DHT22;978;48.314;11.562;2022-12-18T00:56:25;20.30;60.50
1956;DHT22;978;48.314;11.562;2022-12-18T00:58:52;20.40;60.40
1956;DHT22;978;48.314;11.562;2022-12-18T01:01:19;20.30;60.40
1956;DHT22;978;48.314;11.562;2022-12-18T01:03:47;20.40;60.40
1956;DHT22;978;48.314;11.562;2022-12-18T01:06:15;20.40;60.40
1956;DHT22;978;48.314;11.562;2022-12-18T01:08:42;20.30;60.30
1956;DHT22;978;48.314;11.562;2022-12-18T01:11:11;20.40;60.40
1956;DHT22;978;48.314;11.562;2022-12-18T01:13:38;20.30;60.20
1956;DHT22;978;48.314;11.562;2022-12-18T01:16:05;20.40;60.20
1956;DHT22;978;48.314;11.562;2022-12-18T01:18:32;20.30;60.20
1956;DHT22;978;48.314;11.562;2022-12-18T01:21:00;20.30;60.20
1956;DHT22;978;48.314;11.562;2022-12-18T01:23:27;20.30;60.10
1956;DHT22;978;48.314;11.562;2022-12-18T01:25:53;20.30;60.10
1956;DHT22;978;48.314;11.562;2022-12-18T01:28:20;20.40;60.10
1956;DHT22;978;48.314;11.562;2022-12-18T01:30:47;20.30;60.10
1956;DHT22;978;48.314;11.562;2022-12-18T01:33:13;20.30;60.00
1956;DHT22;978;48.314;11.562;2022-12-18T01:35:41;20.30;60.00
1956;DHT22;978;48.314;11.562;2022-12-18T01:38:09;20.30;60.00
1956;DHT22;978;48.314;11.562;2022-12-18T01:40:36;20.40;60.10
1956;DHT22;978;48.314;11.562;2022-12-18T01:43:03;20.30;60.00
1956;DHT22;978;48.314;11.562;2022-12-18T01:45:31;20.30;60.00
1956;DHT22;978;48.314;11.562;2022-12-18T01:48:00;20.30;60.00
1956;DHT22;978;48.314;11.562;2022-12-18T01:50:31;20.30;59.90
1956;DHT22;978;48.314;11.562;2022-12-18T01:53:02;20.30;60.00
1956;DHT22;978;48.314;11.562;2022-12-18T01:55:36;20.30;59.90
1956;DHT22;978;48.314;11.562;2022-12-18T01:58:04;20.30;59.90
1956;DHT22;978;48.314;11.562;2022-12-18T02:00:31;20.30;59.90
1956;DHT22;978;48.314;11.562;2022-12-18T02:02:58;20.30;59.80
1956;DHT22;978;48.314;11.562;2022-12-18T02:05:33;20.30;59.80
1956;DHT22;978;48.314;11.562;2022-12-18T02:08:09;20.30;59.80
1956;DHT22;978;48.314;11.562;2022-12-18T02:10:45;20.30;59.70
1956;DHT22;978;48.314;11.562;2022-12-18T02:13:18;20.30;59.60
1956;DHT22;978;48.314;11.562;2022-12-18T02:15:51;20.30;59.60
1956;DHT22;978;48.314;11.562;2022-12-18T02:18:23;20.30;60.10
1956;DHT22;978;48.314;11.562;2022-12-18T02:20:55;20.30;59.60
1956;DHT22;978;48.314;11.562;2022-12-18T02:23:40;20.30;59.60
1956;DHT22;978;48.314;11.562;2022-12-18T02:26:16;20.30;59.50
1956;DHT22;978;48.314;11.562;2022-12-18T02:28:53;20.40;59.60
1956;DHT22;978;48.314;11.562;2022-12-18T02:31:23;20.30;59.50
1956;DHT22;978;48.314;11.562;2022-12-18T02:33:54;20.30;59.40
1956;DHT22;978;48.314;11.562;2022-12-18T02:36:22;20.30;59.50
1956;DHT22;978;48.314;11.562;2022-12-18T02:38:51;20.30;59.40
1956;DHT22;978;48.314;11.562;2022-12-18T02:41:21;20.30;59.40
1956;DHT22;978;48.314;11.562;2022-12-18T02:43:48;20.30;59.30
1956;DHT22;978;48.314;11.562;2022-12-18T02:46:32;20.30;59.30
1956;DHT22;978;48.314;11.562;2022-12-18T02:49:06;20.30;59.30
1956;DHT22;978;48.314;11.562;2022-12-18T02:51:42;20.30;59.30
1956;DHT22;978;48.314;11.562;2022-12-18T02:57:15;20.30;59.20
1956;DHT22;978;48.314;11.562;2022-12-18T02:59:49;20.30;59.20
1956;DHT22;978;48.314;11.562;2022-12-18T03:02:23;20.30;59.20
1956;DHT22;978;48.314;11.562;2022-12-18T03:04:56;20.30;59.20
1956;DHT22;978;48.314;11.562;2022-12-18T03:07:30;20.30;59.10
1956;DHT22;978;48.314;11.562;2022-12-18T03:10:00;20.30;59.10
1956;DHT22;978;48.314;11.562;2022-12-18T03:12:31;20.30;59.10
1956;DHT22;978;48.314;11.562;2022-12-18T03:15:02;20.30;59.10
1956;DHT22;978;48.314;11.562;2022-12-18T03:17:31;20.30;59.00
1956;DHT22;978;48.314;11.562;2022-12-18T03:20:04;20.30;59.00
1956;DHT22;978;48.314;11.562;2022-12-18T03:22:33;20.30;59.00
1956;DHT22;978;48.314;11.562;2022-12-18T03:25:04;20.30;59.00
1956;DHT22;978;48.314;11.562;2022-12-18T03:27:33;20.30;59.10
1956;DHT22;978;48.314;11.562;2022-12-18T03:30:05;20.30;59.10
1956;DHT22;978;48.314;11.562;2022-12-18T03:32:38;20.30;59.00
1956;DHT22;978;48.314;11.562;2022-12-18T03:35:08;20.30;59.10
1956;DHT22;978;48.314;11.562;2022-12-18T03:37:36;20.30;59.00
1956;DHT22;978;48.314;11.562;2022-12-18T03:40:03;20.30;59.00
1956;DHT22;978;48.314;11.562;2022-12-18T03:42:36;20.30;59.10
1956;DHT22;978;48.314;11.562;2022-12-18T03:45:09;20.30;59.00
1956;DHT22;978;48.314;11.562;2022-12-18T03:47:41;20.30;59.00
1956;DHT22;978;48.314;11.562;2022-12-18T03:50:14;20.30;58.90
1956;DHT22;978;48.314;11.562;2022-12-18T03:52:47;20.30;58.90
1956;DHT22;978;48.314;11.562;2022-12-18T03:55:15;20.30;58.90
1956;DHT22;978;48.314;11.562;2022-12-18T03:57:45;20.30;58.80
1956;DHT22;978;48.314;11.562;2022-12-18T04:00:15;20.30;58.90
1956;DHT22;978;48.314;11.562;2022-12-18T04:02:47;20.30;58.80
1956;DHT22;978;48.314;11.562;2022-12-18T04:05:16;20.30;58.80
1956;DHT22;978;48.314;11.562;2022-12-18T04:07:45;20.30;58.80
1956;DHT22;978;48.314;11.562;2022-12-18T04:10:14;20.30;58.80
1956;DHT22;978;48.314;11.562;2022-12-18T04:12:43;20.30;58.80
1956;DHT22;978;48.314;11.562;2022-12-18T04:15:11;20.30;58.80
1956;DHT22;978;48.314;11.562;2022-12-18T04:17:38;20.30;58.70
1956;DHT22;978;48.314;11.562;2022-12-18T04:20:06;20.30;58.60
1956;DHT22;978;48.314;11.562;2022-12-18T04:22:33;20.30;58.70
1956;DHT22;978;48.314;11.562;2022-12-18T04:25:00;20.30;58.70
1956;DHT22;978;48.314;11.562;2022-12-18T04:27:27;20.30;58.60
1956;DHT22;978;48.314;11.562;2022-12-18T04:29:56;20.30;58.60
1956;DHT22;978;48.314;11.562;2022-12-18T04:32:22;20.30;58.50
1956;DHT22;978;48.314;11.562;2022-12-18T04:34:49;20.30;58.50
1956;DHT22;978;48.314;11.562;2022-12-18T04:37:16;20.30;58.60
1956;DHT22;978;48.314;11.562;2022-12-18T04:39:43;20.30;58.60
1956;DHT22;978;48.314;11.562;2022-12-18T04:42:09;20.30;58.60
1956;DHT22;978;48.314;11.562;2022-12-18T04:44:36;20.30;58.70
1956;DHT22;978;48.314;11.562;2022-12-18T04:47:04;20.30;58.70
1956;DHT22;978;48.314;11.562;2022-12-18T04:49:31;20.30;58.70
1956;DHT22;978;48.314;11.562;2022-12-18T04:51:58;20.30;58.70
1956;DHT22;978;48.314;11.562;2022-12-18T04:54:25;20.30;58.60
1956;DHT22;978;48.314;11.562;2022-12-18T04:56:52;20.30;58.70
1956;DHT22;978;48.314;11.562;2022-12-18T04:59:18;20.30;58.60
1956;DHT22;978;48.314;11.562;2022-12-18T05:01:45;20.30;58.60
1956;DHT22;978;48.314;11.562;2022-12-18T05:04:13;20.30;58.70
1956;DHT22;978;48.314;11.562;2022-12-18T05:06:40;20.30;58.60
1956;DHT22;978;48.314;11.562;2022-12-18T05:09:07;20.30;58.60
1956;DHT22;978;48.314;11.562;2022-12-18T05:11:33;20.30;58.60
1956;DHT22;978;48.314;11.562;2022-12-18T05:14:00;20.30;58.60
1956;DHT22;978;48.314;11.562;2022-12-18T05:16:27;20.30;58.70
1956;DHT22;978;48.314;11.562;2022-12-18T05:18:53;20.30;58.60
1956;DHT22;978;48.314;11.562;2022-12-18T05:21:21;20.30;58.70
1956;DHT22;978;48.314;11.562;2022-12-18T05:23:48;20.30;58.70
1956;DHT22;978;48.314;11.562;2022-12-18T05:26:17;20.30;58.60
1956;DHT22;978;48.314;11.562;2022-12-18T05:28:44;20.30;58.70
1956;DHT22;978;48.314;11.562;2022-12-18T05:31:11;20.30;58.60
1956;DHT22;978;48.314;11.562;2022-12-18T05:33:38;20.30;58.70
1956;DHT22;978;48.314;11.562;2022-12-18T05:36:07;20.30;58.60
1956;DHT22;978;48.314;11.562;2022-12-18T05:38:37;20.30;58.60
1956;DHT22;978;48.314;11.562;2022-12-18T05:41:05;20.30;58.60
1956;DHT22;978;48.314;11.562;2022-12-18T05:43:34;20.30;58.70
1956;DHT22;978;48.314;11.562;2022-12-18T05:46:03;20.30;58.60
1956;DHT22;978;48.314;11.562;2022-12-18T05:48:30;20.30;58.60
1956;DHT22;978;48.314;11.562;2022-12-18T05:51:04;20.30;58.60
1956;DHT22;978;48.314;11.562;2022-12-18T05:53:32;20.30;58.60
1956;DHT22;978;48.314;11.562;2022-12-18T05:56:02;20.30;58.60
1956;DHT22;978;48.314;11.562;2022-12-18T05:58:29;20.30;58.60
1956;DHT22;978;48.314;11.562;2022-12-18T06:00:56;20.30;58.60
1956;DHT22;978;48.314;11.562;2022-12-18T06:03:23;20.30;58.60
1956;DHT22;978;48.314;11.562;2022-12-18T06:05:50;20.30;58.50
1956;DHT22;978;48.314;11.562;2022-12-18T06:08:16;20.30;58.60
1956;DHT22;978;48.314;11.562;2022-12-18T06:10:50;20.30;58.60
1956;DHT22;978;48.314;11.562;2022-12-18T06:13:19;20.30;58.50
1956;DHT22;978;48.314;11.562;2022-12-18T06:15:46;20.30;58.50
1956;DHT22;978;48.314;11.562;2022-12-18T06:18:13;20.30;58.60
1956;DHT22;978;48.314;11.562;2022-12-18T06:20:40;20.30;58.60
1956;DHT22;978;48.314;11.562;2022-12-18T06:23:07;20.30;58.60
1956;DHT22;978;48.314;11.562;2022-12-18T06:25:36;20.30;58.60
1956;DHT22;978;48.314;11.562;2022-12-18T06:28:03;20.30;58.50
1956;DHT22;978;48.314;11.562;2022-12-18T06:30:31;20.30;58.50
1956;DHT22;978;48.314;11.562;2022-12-18T06:32:58;20.30;58.50
1956;DHT22;978;48.314;11.562;2022-12-18T06:35:24;20.30;58.60
1956;DHT22;978;48.314;11.562;2022-12-18T06:37:51;20.30;58.50
1956;DHT22;978;48.314;11.562;2022-12-18T06:40:18;20.30;58.50
1956;DHT22;978;48.314;11.562;2022-12-18T06:42:44;20.30;58.50
1956;DHT22;978;48.314;11.562;2022-12-18T06:45:11;20.30;58.50
1956;DHT22;978;48.314;11.562;2022-12-18T06:47:39;20.30;58.50
1956;DHT22;978;48.314;11.562;2022-12-18T06:50:07;20.30;58.40
1956;DHT22;978;48.314;11.562;2022-12-18T06:52:34;20.30;58.50
1956;DHT22;978;48.314;11.562;2022-12-18T06:55:00;20.30;58.50
1956;DHT22;978;48.314;11.562;2022-12-18T06:57:27;20.30;58.50
1956;DHT22;978;48.314;11.562;2022-12-18T06:59:54;20.30;58.60
1956;DHT22;978;48.314;11.562;2022-12-18T07:02:21;20.30;58.50
1956;DHT22;978;48.314;11.562;2022-12-18T07:04:49;20.30;58.40
1956;DHT22;978;48.314;11.562;2022-12-18T07:07:16;20.30;58.50
1956;DHT22;978;48.314;11.562;2022-12-18T07:09:43;20.30;58.40
1956;DHT22;978;48.314;11.562;2022-12-18T07:12:09;20.30;58.40
1956;DHT22;978;48.314;11.562;2022-12-18T07:14:36;20.30;58.40
1956;DHT22;978;48.314;11.562;2022-12-18T07:17:03;20.30;58.40
1956;DHT22;978;48.314;11.562;2022-12-18T07:19:29;20.30;58.40
1956;DHT22;978;48.314;11.562;2022-12-18T07:21:57;20.30;58.40
1956;DHT22;978;48.314;11.562;2022-12-18T07:24:24;20.30;58.40
1956;DHT22;978;48.314;11.562;2022-12-18T07:26:51;20.30;58.40
1956;DHT22;978;48.314;11.562;2022-12-18T07:29:18;20.30;58.40
1956;DHT22;978;48.314;11.562;2022-12-18T07:31:44;20.30;58.40
1956;DHT22;978;48.314;11.562;2022-12-18T07:34:11;20.30;58.40
1956;DHT22;978;48.314;11.562;2022-12-18T07:36:38;20.30;58.40
1956;DHT22;978;48.314;11.562;2022-12-18T07:39:06;20.30;58.40
1956;DHT22;978;48.314;11.562;2022-12-18T07:41:33;20.30;58.40
1956;DHT22;978;48.314;11.562;2022-12-18T07:44:00;20.30;58.50
1956;DHT22;978;48.314;11.562;2022-12-18T07:46:27;20.30;58.50
1956;DHT22;978;48.314;11.562;2022-12-18T07:48:54;20.30;58.50
1956;DHT22;978;48.314;11.562;2022-12-18T07:51:20;20.30;58.50
1956;DHT22;978;48.314;11.562;2022-12-18T07:53:47;20.30;58.50
1956;DHT22;978;48.314;11.562;2022-12-18T07:56:16;20.30;58.60
1956;DHT22;978;48.314;11.562;2022-12-18T07:58:42;20.30;58.50
1956;DHT22;978;48.314;11.562;2022-12-18T08:01:14;20.30;58.50
1956;DHT22;978;48.314;11.562;2022-12-18T08:03:41;20.30;58.40
1956;DHT22;978;48.314;11.562;2022-12-18T08:06:09;20.30;58.40
1956;DHT22;978;48.314;11.562;2022-12-18T08:08:36;20.30;58.40
1956;DHT22;978;48.314;11.562;2022-12-18T08:11:03;20.30;58.90
1956;DHT22;978;48.314;11.562;2022-12-18T08:13:31;20.30;58.40
1956;DHT22;978;48.314;11.562;2022-12-18T08:15:58;20.30;58.30
1956;DHT22;978;48.314;11.562;2022-12-18T08:18:25;20.30;58.30
1956;DHT22;978;48.314;11.562;2022-12-18T08:20:52;20.30;58.30
1956;DHT22;978;48.314;11.562;2022-12-18T08:23:19;20.30;58.30
1956;DHT22;978;48.314;11.562;2022-12-18T08:25:46;20.30;58.30
1956;DHT22;978;48.314;11.562;2022-12-18T08:28:13;20.30;58.30
1956;DHT22;978;48.314;11.562;2022-12-18T08:30:41;20.30;58.30
1956;DHT22;978;48.314;11.562;2022-12-18T08:33:08;20.30;58.30
1956;DHT22;978;48.314;11.562;2022-12-18T08:35:35;20.30;58.30
1956;DHT22;978;48.314;11.562;2022-12-18T08:38:02;20.30;58.30
1956;DHT22;978;48.314;11.562;2022-12-18T08:40:29;20.30;58.30
1956;DHT22;978;48.314;11.562;2022-12-18T08:42:56;20.30;58.30
1956;DHT22;978;48.314;11.562;2022-12-18T08:45:42;20.30;58.30
1956;DHT22;978;48.314;11.562;2022-12-18T08:48:09;20.30;58.40
1956;DHT22;978;48.314;11.562;2022-12-18T08:50:35;20.30;58.40
1956;DHT22;978;48.314;11.562;2022-12-18T08:53:02;20.30;58.30
1956;DHT22;978;48.314;11.562;2022-12-18T08:55:29;20.30;58.40
1956;DHT22;978;48.314;11.562;2022-12-18T08:57:56;20.30;58.40
1956;DHT22;978;48.314;11.562;2022-12-18T09:00:22;20.30;58.40
1956;DHT22;978;48.314;11.562;2022-12-18T09:02:50;20.30;58.40
1956;DHT22;978;48.314;11.562;2022-12-18T09:05:17;20.30;58.30
1956;DHT22;978;48.314;11.562;2022-12-18T09:07:44;20.30;58.40
1956;DHT22;978;48.314;11.562;2022-12-18T09:10:10;20.30;58.40
1956;DHT22;978;48.314;11.562;2022-12-18T09:12:37;20.30;58.40
1956;DHT22;978;48.314;11.562;2022-12-18T09:15:05;20.30;58.40
1956;DHT22;978;48.314;11.562;2022-12-18T09:17:32;20.30;58.40
1956;DHT22;978;48.314;11.562;2022-12-18T09:20:00;20.30;58.40
1956;DHT22;978;48.314;11.562;2022-12-18T09:22:26;20.30;58.40
1956;DHT22;978;48.314;11.562;2022-12-18T09:24:53;20.30;58.40
1956;DHT22;978;48.314;11.562;2022-12-18T09:27:20;20.30;58.40
1956;DHT22;978;48.314;11.562;2022-12-18T09:29:46;20.30;58.40
1956;DHT22;978;48.314;11.562;2022-12-18T09:32:14;20.30;58.60
1956;DHT22;978;48.314;11.562;2022-12-18T09:34:40;20.20;58.40
1956;DHT22;978;48.314;11.562;2022-12-18T09:37:09;20.20;58.40
1956;DHT22;978;48.314;11.562;2022-12-18T09:39:35;20.20;58.30
1956;DHT22;978;48.314;11.562;2022-12-18T09:42:02;20.20;58.30
1956;DHT22;978;48.314;11.562;2022-12-18T09:44:32;20.20;58.30
1956;DHT22;978;48.314;11.562;2022-12-18T09:47:09;20.20;58.30
1956;DHT22;978;48.314;11.562;2022-12-18T09:49:42;20.20;58.30
1956;DHT22;978;48.314;11.562;2022-12-18T09:52:14;20.20;58.30
1956;DHT22;978;48.314;11.562;2022-12-18T09:54:44;20.20;58.30
1956;DHT22;978;48.314;11.562;2022-12-18T09:57:14;20.20;58.30
1956;DHT22;978;48.314;11.562;2022-12-18T09:59:42;20.20;58.20
1956;DHT22;978;48.314;11.562;2022-12-18T10:02:15;20.20;58.30
1956;DHT22;978;48.314;11.562;2022-12-18T10:04:43;20.20;58.20
1956;DHT22;978;48.314;11.562;2022-12-18T10:07:16;20.20;58.30
1956;DHT22;978;48.314;11.562;2022-12-18T10:09:51;20.20;58.30
1956;DHT22;978;48.314;11.562;2022-12-18T10:12:26;20.20;58.30
1956;DHT22;978;48.314;11.562;2022-12-18T10:14:59;20.20;58.30
1956;DHT22;978;48.314;11.562;2022-12-18T10:17:35;20.20;58.30
1956;DHT22;978;48.314;11.562;2022-12-18T10:20:12;20.20;58.30
1956;DHT22;978;48.314;11.562;2022-12-18T10:22:50;20.20;58.30
1956;DHT22;978;48.314;11.562;2022-12-18T10:25:22;20.20;58.30
1956;DHT22;978;48.314;11.562;2022-12-18T10:27:53;20.20;58.30
1956;DHT22;978;48.314;11.562;2022-12-18T10:30:22;20.20;58.30
1956;DHT22;978;48.314;11.562;2022-12-18T10:32:49;20.20;58.30
1956;DHT22;978;48.314;11.562;2022-12-18T10:35:20;20.20;58.30
1956;DHT22;978;48.314;11.562;2022-12-18T10:38:04;20.20;58.30
1956;DHT22;978;48.314;11.562;2022-12-18T10:40:32;20.20;58.30
1956;DHT22;978;48.314;11.562;2022-12-18T10:43:11;20.20;58.30
1956;DHT22;978;48.314;11.562;2022-12-18T10:45:38;20.20;58.30
1956;DHT22;978;48.314;11.562;2022-12-18T10:48:17;20.20;58.30
1956;DHT22;978;48.314;11.562;2022-12-18T10:50:46;20.20;58.30
1956;DHT22;978;48.314;11.562;2022-12-18T10:53:19;20.20;58.50
1956;DHT22;978;48.314;11.562;2022-12-18T10:55:46;20.20;58.30
1956;DHT22;978;48.314;11.562;2022-12-18T10:58:16;20.20;58.30
1956;DHT22;978;48.314;11.562;2022-12-18T11:01:05;20.20;58.30
1956;DHT22;978;48.314;11.562;2022-12-18T11:03:33;20.20;58.40
1956;DHT22;978;48.314;11.562;2022-12-18T11:06:04;20.20;58.40
1956;DHT22;978;48.314;11.562;2022-12-18T11:08:33;20.20;58.30
1956;DHT22;978;48.314;11.562;2022-12-18T11:11:00;20.20;58.40
1956;DHT22;978;48.314;11.562;2022-12-18T11:13:28;20.20;58.40
1956;DHT22;978;48.314;11.562;2022-12-18T11:15:56;20.20;58.40
1956;DHT22;978;48.314;11.562;2022-12-18T11:18:26;20.20;58.30
1956;DHT22;978;48.314;11.562;2022-12-18T11:20:56;20.20;58.30
1956;DHT22;978;48.314;11.562;2022-12-18T11:23:24;20.20;58.30
1956;DHT22;978;48.314;11.562;2022-12-18T11:25:56;20.20;58.30
1956;DHT22;978;48.314;11.562;2022-12-18T11:28:29;20.20;58.30
1956;DHT22;978;48.314;11.562;2022-12-18T11:31:20;20.20;58.90
1956;DHT22;978;48.314;11.562;2022-12-18T11:33:52;20.20;58.30
1956;DHT22;978;48.314;11.562;2022-12-18T11:36:22;20.20;58.30
1956;DHT22;978;48.314;11.562;2022-12-18T11:38:50;20.20;58.30
1956;DHT22;978;48.314;11.562;2022-12-18T11:41:23;20.20;58.30
1956;DHT22;978;48.314;11.562;2022-12-18T11:44:15;20.20;58.30
1956;DHT22;978;48.314;11.562;2022-12-18T11:46:48;20.20;58.30
1956;DHT22;978;48.314;11.562;2022-12-18T11:49:20;20.20;58.30
1956;DHT22;978;48.314;11.562;2022-12-18T11:51:51;20.20;58.30
1956;DHT22;978;48.314;11.562;2022-12-18T11:54:21;20.20;58.30
1956;DHT22;978;48.314;11.562;2022-12-18T11:56:53;20.20;58.40
1956;DHT22;978;48.314;11.562;2022-12-18T11:59:31;20.20;58.30
1956;DHT22;978;48.314;11.562;2022-12-18T12:02:11;20.20;58.40
1956;DHT22;978;48.314;11.562;2022-12-18T12:04:56;20.20;58.30
1956;DHT22;978;48.314;11.562;2022-12-18T12:07:36;20.20;58.30
1956;DHT22;978;48.314;11.562;2022-12-18T12:10:25;20.20;58.30
1956;DHT22;978;48.314;11.562;2022-12-18T12:13:11;20.20;58.30
1956;DHT22;978;48.314;11.562;2022-12-18T12:15:48;20.20;58.30
1956;DHT22;978;48.314;11.562;2022-12-18T12:18:24;20.20;58.90
1956;DHT22;978;48.314;11.562;2022-12-18T12:21:01;20.20;58.30
1956;DHT22;978;48.314;11.562;2022-12-18T12:23:35;20.20;58.40
1956;DHT22;978;48.314;11.562;2022-12-18T12:26:07;20.20;58.30
1956;DHT22;978;48.314;11.562;2022-12-18T12:28:48;20.20;58.40
1956;DHT22;978;48.314;11.562;2022-12-18T12:31:26;20.20;58.40
1956;DHT22;978;48.314;11.562;2022-12-18T12:34:00;20.20;58.30
1956;DHT22;978;48.314;11.562;2022-12-18T12:36:39;20.20;58.90
1956;DHT22;978;48.314;11.562;2022-12-18T12:39:13;20.20;58.30
1956;DHT22;978;48.314;11.562;2022-12-18T12:41:45;20.20;58.30
1956;DHT22;978;48.314;11.562;2022-12-18T12:44:40;20.20;58.30
1956;DHT22;978;48.314;11.562;2022-12-18T12:47:13;20.20;58.30
1956;DHT22;978;48.314;11.562;2022-12-18T12:49:40;20.20;58.30
1956;DHT22;978;48.314;11.562;2022-12-18T12:52:16;20.20;58.30
1956;DHT22;978;48.314;11.562;2022-12-18T12:54:44;20.20;58.30
1956;DHT22;978;48.314;11.562;2022-12-18T12:57:15;20.20;58.30
1956;DHT22;978;48.314;11.562;2022-12-18T12:59:51;20.20;58.30
1956;DHT22;978;48.314;11.562;2022-12-18T13:02:22;20.20;58.30
1956;DHT22;978;48.314;11.562;2022-12-18T13:04:55;20.20;58.30
1956;DHT22;978;48.314;11.562;2022-12-18T13:07:26;20.20;58.30
1956;DHT22;978;48.314;11.562;2022-12-18T13:13:08;20.20;58.30
1956;DHT22;978;48.314;11.562;2022-12-18T13:15:39;20.20;58.30
1956;DHT22;978;48.314;11.562;2022-12-18T13:20:50;20.20;58.30
1956;DHT22;978;48.314;11.562;2022-12-18T13:23:27;20.20;58.30
1956;DHT22;978;48.314;11.562;2022-12-18T13:25:56;20.20;58.30
1956;DHT22;978;48.314;11.562;2022-12-18T13:28:24;20.20;58.30
1956;DHT22;978;48.314;11.562;2022-12-18T13:31:13;20.20;58.30
1956;DHT22;978;48.314;11.562;2022-12-18T13:33:43;20.20;58.30
1956;DHT22;978;48.314;11.562;2022-12-18T13:36:31;20.20;58.30
1956;DHT22;978;48.314;11.562;2022-12-18T13:39:32;20.20;58.30
1956;DHT22;978;48.314;11.562;2022-12-18T13:45:44;20.20;58.30
1956;DHT22;978;48.314;11.562;2022-12-18T13:48:21;20.20;58.30
1956;DHT22;978;48.314;11.562;2022-12-18T13:50:52;20.20;58.20
1956;DHT22;978;48.314;11.562;2022-12-18T13:53:22;20.20;58.20
1956;DHT22;978;48.314;11.562;2022-12-18T13:55:50;20.20;58.20
1956;DHT22;978;48.314;11.562;2022-12-18T13:58:17;20.20;58.20
1956;DHT22;978;48.314;11.562;2022-12-18T14:00:44;20.20;58.20
1956;DHT22;978;48.314;11.562;2022-12-18T14:03:22;20.10;58.20
1956;DHT22;978;48.314;11.562;2022-12-18T14:05:55;20.20;58.20
1956;DHT22;978;48.314;11.562;2022-12-18T14:08:23;20.20;58.20
1956;DHT22;978;48.314;11.562;2022-12-18T14:10:51;20.20;58.20
1956;DHT22;978;48.314;11.562;2022-12-18T14:13:24;20.20;58.30
1956;DHT22;978;48.314;11.562;2022-12-18T14:15:54;20.20;58.30
1956;DHT22;978;48.314;11.562;2022-12-18T14:18:25;20.20;58.30
1956;DHT22;978;48.314;11.562;2022-12-18T14:20:55;20.20;58.30
1956;DHT22;978;48.314;11.562;2022-12-18T14:23:31;20.20;58.30
1956;DHT22;978;48.314;11.562;2022-12-18T14:25:59;20.20;58.30
1956;DHT22;978;48.314;11.562;2022-12-18T14:28:26;20.20;58.30
1956;DHT22;978;48.314;11.562;2022-12-18T14:30:53;20.20;58.10
1956;DHT22;978;48.314;11.562;2022-12-18T14:33:24;20.20;58.10
1956;DHT22;978;48.314;11.562;2022-12-18T14:35:57;20.20;58.10
1956;DHT22;978;48.314;11.562;2022-12-18T14:38:27;20.20;58.00
1956;DHT22;978;48.314;11.562;2022-12-18T14:41:01;20.20;58.00
1956;DHT22;978;48.314;11.562;2022-12-18T14:43:31;20.20;58.10
1956;DHT22;978;48.314;11.562;2022-12-18T14:45:58;20.20;58.00
1956;DHT22;978;48.314;11.562;2022-12-18T14:48:35;20.20;58.00
1956;DHT22;978;48.314;11.562;2022-12-18T14:51:04;20.20;58.00
1956;DHT22;978;48.314;11.562;2022-12-18T14:53:37;20.20;58.00
1956;DHT22;978;48.314;11.562;2022-12-18T14:56:15;20.20;58.10
1956;DHT22;978;48.314;11.562;2022-12-18T14:58:47;20.20;57.80
1956;DHT22;978;48.314;11.562;2022-12-18T15:01:22;20.20;57.90
1956;DHT22;978;48.314;11.562;2022-12-18T15:03:52;20.20;57.80
1956;DHT22;978;48.314;11.562;2022-12-18T15:06:29;20.20;57.70
1956;DHT22;978;48.314;11.562;2022-12-18T15:08:57;20.20;57.70
1956;DHT22;978;48.314;11.562;2022-12-18T15:11:30;20.20;57.70
1956;DHT22;978;48.314;11.562;2022-12-18T15:13:59;20.20;57.70
1956;DHT22;978;48.314;11.562;2022-12-18T15:16:26;20.20;57.70
1956;DHT22;978;48.314;11.562;2022-12-18T15:18:54;20.20;57.70
1956;DHT22;978;48.314;11.562;2022-12-18T15:21:21;20.20;57.70
1956;DHT22;978;48.314;11.562;2022-12-18T15:23:49;20.20;57.70
1956;DHT22;978;48.314;11.562;2022-12-18T15:26:18;20.20;57.70
1956;DHT22;978;48.314;11.562;2022-12-18T15:28:46;20.20;57.70
1956;DHT22;978;48.314;11.562;2022-12-18T15:31:24;20.20;57.60
1956;DHT22;978;48.314;11.562;2022-12-18T15:34:12;20.20;57.50
1956;DHT22;978;48.314;11.562;2022-12-18T15:36:40;20.20;57.20
1956;DHT22;978;48.314;11.562;2022-12-18T15:39:09;20.20;57.20
1956;DHT22;978;48.314;11.562;2022-12-18T15:41:37;20.20;57.00
1956;DHT22;978;48.314;11.562;2022-12-18T15:44:22;20.20;57.00
1956;DHT22;978;48.314;11.562;2022-12-18T15:46:48;20.20;56.90
1956;DHT22;978;48.314;11.562;2022-12-18T15:49:16;20.20;56.80
1956;DHT22;978;48.314;11.562;2022-12-18T15:51:43;20.20;56.70
1956;DHT22;978;48.314;11.562;2022-12-18T15:54:12;20.20;56.60
1956;DHT22;978;48.314;11.562;2022-12-18T15:56:41;20.20;56.60
1956;DHT22;978;48.314;11.562;2022-12-18T15:59:25;20.20;56.60
1956;DHT22;978;48.314;11.562;2022-12-18T16:01:52;20.20;56.50
1956;DHT22;978;48.314;11.562;2022-12-18T16:04:22;20.20;56.50
1956;DHT22;978;48.314;11.562;2022-12-18T16:06:50;20.20;56.40
1956;DHT22;978;48.314;11.562;2022-12-18T16:09:17;20.20;56.30
1956;DHT22;978;48.314;11.562;2022-12-18T16:11:44;20.20;56.20
1956;DHT22;978;48.314;11.562;2022-12-18T16:14:19;20.20;56.30
1956;DHT22;978;48.314;11.562;2022-12-18T16:16:48;20.20;56.20
1956;DHT22;978;48.314;11.562;2022-12-18T16:19:15;20.20;56.20
1956;DHT22;978;48.314;11.562;2022-12-18T16:21:44;20.20;56.20
1956;DHT22;978;48.314;11.562;2022-12-18T16:24:14;20.20;56.10
1956;DHT22;978;48.314;11.562;2022-12-18T16:26:41;20.20;56.00
1956;DHT22;978;48.314;11.562;2022-12-18T16:29:08;20.20;56.00
1956;DHT22;978;48.314;11.562;2022-12-18T16:31:35;20.20;56.00
1956;DHT22;978;48.314;11.562;2022-12-18T16:34:12;20.10;56.00